Time;durP1;ratioP1;P1;durP2;ratioP2;P2;SDS_P1;SDS_P2;PMS_P1;PMS_P2;Temp;Humidity;BMP_temperature;BMP_pressure;BME280_temperature;BME280_humidity;BME280_pressure;Samples;Min_cycle;Max_cycle;Signal;HPM_P1;HPM_P2
2021/06/30 00:00:16;;;;;;;0.30;0.30;;;;;;;;;;5015268;28;20439;-61
2021/06/30 00:02:42;;;;;;;0.20;0.20;;;;;;;;;;5015517;28;20467;-61
2021/06/30 00:05:09;;;;;;;0.30;0.30;;;;;;;;;;5015620;28;20169;-61
2021/06/30 00:07:35;;;;;;;0.30;0.30;;;;;;;;;;5015490;28;20435;-61
2021/06/30 00:10:02;;;;;;;0.30;0.30;;;;;;;;;;5015010;28;20704;-61
2021/06/30 00:12:28;;;;;;;0.20;0.20;;;;;;;;;;5015358;28;20408;-63
2021/06/30 00:14:55;;;;;;;0.30;0.30;;;;;;;;;;5015327;28;20930;-63
2021/06/30 00:17:24;;;;;;;0.30;0.30;;;;;;;;;;5015351;28;20779;-63
2021/06/30 00:19:50;;;;;;;0.30;0.30;;;;;;;;;;5014917;28;20219;-63
2021/06/30 00:22:16;;;;;;;0.30;0.30;;;;;;;;;;5015135;28;20546;-63
2021/06/30 00:24:42;;;;;;;0.20;0.20;;;;;;;;;;5015081;28;20554;-63
2021/06/30 00:27:08;;;;;;;0.30;0.30;;;;;;;;;;5015064;28;20803;-63
2021/06/30 00:29:34;;;;;;;0.30;0.30;;;;;;;;;;5014731;28;20427;-63
2021/06/30 00:32:00;;;;;;;0.20;0.20;;;;;;;;;;5015115;28;20422;-63
2021/06/30 00:34:26;;;;;;;0.30;0.30;;;;;;;;;;5014928;28;20495;-63
2021/06/30 00:36:52;;;;;;;0.30;0.30;;;;;;;;;;5014904;28;20407;-61
2021/06/30 00:39:20;;;;;;;0.20;0.20;;;;;;;;;;5014375;28;20451;-63
2021/06/30 00:41:46;;;;;;;0.20;0.20;;;;;;;;;;5014995;28;20424;-63
2021/06/30 00:44:12;;;;;;;0.30;0.30;;;;;;;;;;5014667;28;20474;-63
2021/06/30 00:46:38;;;;;;;0.20;0.20;;;;;;;;;;5014662;28;20415;-63
2021/06/30 00:49:06;;;;;;;0.30;0.30;;;;;;;;;;5014347;28;20181;-63
2021/06/30 00:51:32;;;;;;;0.20;0.20;;;;;;;;;;5014665;28;20416;-63
2021/06/30 00:53:58;;;;;;;0.20;0.20;;;;;;;;;;5014511;28;20417;-63
2021/06/30 00:56:28;;;;;;;0.30;0.30;;;;;;;;;;5014501;28;20415;-63
2021/06/30 00:58:55;;;;;;;0.20;0.20;;;;;;;;;;5014242;28;20409;-63
2021/06/30 01:01:22;;;;;;;0.30;0.30;;;;;;;;;;5014372;28;20785;-63
2021/06/30 01:03:48;;;;;;;0.23;0.23;;;;;;;;;;5014255;28;20466;-63
2021/06/30 01:06:15;;;;;;;0.30;0.30;;;;;;;;;;5013753;28;20502;-63
2021/06/30 01:08:41;;;;;;;0.30;0.30;;;;;;;;;;5013670;28;20409;-65
2021/06/30 01:11:07;;;;;;;0.30;0.30;;;;;;;;;;5014226;28;20986;-62
2021/06/30 01:13:33;;;;;;;0.30;0.30;;;;;;;;;;5014238;28;20504;-63
2021/06/30 01:15:59;;;;;;;0.30;0.30;;;;;;;;;;5014207;28;20178;-63
2021/06/30 01:18:27;;;;;;;0.30;0.30;;;;;;;;;;5013873;28;20412;-63
2021/06/30 01:20:54;;;;;;;0.27;0.27;;;;;;;;;;5014017;28;20440;-63
2021/06/30 01:23:20;;;;;;;0.30;0.30;;;;;;;;;;5013979;28;20460;-62
2021/06/30 01:25:47;;;;;;;0.30;0.30;;;;;;;;;;5013982;28;20396;-63
2021/06/30 01:28:13;;;;;;;0.30;0.30;;;;;;;;;;5013845;28;20437;-63
2021/06/30 01:30:40;;;;;;;0.30;0.30;;;;;;;;;;5013626;28;20427;-63
2021/06/30 01:33:07;;;;;;;0.30;0.30;;;;;;;;;;5013790;28;20433;-63
2021/06/30 01:35:34;;;;;;;0.30;0.30;;;;;;;;;;5013727;28;20779;-63
2021/06/30 01:38:00;;;;;;;0.30;0.30;;;;;;;;;;5013955;28;20504;-63
2021/06/30 01:40:26;;;;;;;0.30;0.30;;;;;;;;;;5013264;28;20547;-63
2021/06/30 01:42:54;;;;;;;0.30;0.30;;;;;;;;;;5013576;28;20466;-63
2021/06/30 01:45:20;;;;;;;0.30;0.30;;;;;;;;;;5013620;28;20916;-63
2021/06/30 01:47:46;;;;;;;0.30;0.30;;;;;;;;;;5013426;28;20470;-63
2021/06/30 01:50:12;;;;;;;0.20;0.20;;;;;;;;;;5013238;28;20436;-62
2021/06/30 01:52:38;;;;;;;0.30;0.30;;;;;;;;;;5013631;28;20420;-63
2021/06/30 01:55:05;;;;;;;0.20;0.20;;;;;;;;;;5013438;28;20192;-63
2021/06/30 01:57:31;;;;;;;0.20;0.20;;;;;;;;;;5013373;28;20204;-63
2021/06/30 01:59:57;;;;;;;0.30;0.30;;;;;;;;;;5013079;28;20478;-63
2021/06/30 02:02:28;;;;;;;0.30;0.30;;;;;;;;;;5013139;28;20842;-62
2021/06/30 02:05:04;;;;;;;0.30;0.30;;;;;;;;;;5013503;28;20417;-63
2021/06/30 02:07:31;;;;;;;0.30;0.30;;;;;;;;;;5013177;28;20408;-63
2021/06/30 02:09:57;;;;;;;0.30;0.30;;;;;;;;;;5012947;28;20183;-60
2021/06/30 02:12:23;;;;;;;0.30;0.30;;;;;;;;;;5013153;28;20176;-61
2021/06/30 02:14:49;;;;;;;0.20;0.20;;;;;;;;;;5013060;28;20542;-61
2021/06/30 02:17:18;;;;;;;0.30;0.30;;;;;;;;;;5012300;28;20456;-61
2021/06/30 02:19:45;;;;;;;0.30;0.30;;;;;;;;;;5012623;28;20193;-61
2021/06/30 02:22:11;;;;;;;0.30;0.30;;;;;;;;;;5012823;28;20645;-61
2021/06/30 02:24:37;;;;;;;0.30;0.30;;;;;;;;;;5012953;28;20182;-61
2021/06/30 02:27:04;;;;;;;0.30;0.30;;;;;;;;;;5012840;28;20538;-61
2021/06/30 02:29:30;;;;;;;0.30;0.30;;;;;;;;;;5012513;28;20230;-61
2021/06/30 02:31:56;;;;;;;0.30;0.30;;;;;;;;;;5012777;28;20175;-61
2021/06/30 02:34:22;;;;;;;0.30;0.30;;;;;;;;;;5012767;28;20178;-61
2021/06/30 02:36:48;;;;;;;0.30;0.30;;;;;;;;;;5012714;28;20650;-61
2021/06/30 02:39:14;;;;;;;0.30;0.30;;;;;;;;;;5012278;28;20455;-61
2021/06/30 02:41:40;;;;;;;0.30;0.30;;;;;;;;;;5012637;28;20172;-61
2021/06/30 02:44:06;;;;;;;0.30;0.30;;;;;;;;;;5012423;28;20190;-61
2021/06/30 02:46:32;;;;;;;0.30;0.30;;;;;;;;;;5012458;28;20198;-61
2021/06/30 02:48:58;;;;;;;0.30;0.30;;;;;;;;;;5012273;28;20636;-61
2021/06/30 02:51:24;;;;;;;0.30;0.30;;;;;;;;;;5012394;28;20399;-61
2021/06/30 02:53:50;;;;;;;0.30;0.30;;;;;;;;;;5012409;28;20413;-60
2021/06/30 02:56:16;;;;;;;0.40;0.40;;;;;;;;;;5012391;28;20414;-61
2021/06/30 02:58:42;;;;;;;0.30;0.30;;;;;;;;;;5012018;28;20405;-61
2021/06/30 03:01:08;;;;;;;0.30;0.30;;;;;;;;;;5012266;28;20464;-61
2021/06/30 03:03:34;;;;;;;0.30;0.30;;;;;;;;;;5012195;28;20459;-61
2021/06/30 03:06:00;;;;;;;0.30;0.30;;;;;;;;;;5012178;28;20424;-60
2021/06/30 03:08:26;;;;;;;0.30;0.30;;;;;;;;;;5012156;28;20440;-60
2021/06/30 03:10:52;;;;;;;0.30;0.30;;;;;;;;;;5012117;28;20932;-63
2021/06/30 03:13:17;;;;;;;0.30;0.30;;;;;;;;;;5012053;28;20520;-63
2021/06/30 03:15:44;;;;;;;0.30;0.30;;;;;;;;;;5012105;28;20523;-60
2021/06/30 03:18:10;;;;;;;0.30;0.30;;;;;;;;;;5012156;28;20818;-61
2021/06/30 03:20:36;;;;;;;0.30;0.30;;;;;;;;;;5011780;28;20240;-61
2021/06/30 03:23:02;;;;;;;0.30;0.30;;;;;;;;;;5011102;28;20539;-61
2021/06/30 03:25:28;;;;;;;0.30;0.30;;;;;;;;;;5011949;28;20983;-61
2021/06/30 03:27:54;;;;;;;0.30;0.30;;;;;;;;;;5011908;28;20436;-61
2021/06/30 03:30:20;;;;;;;0.30;0.30;;;;;;;;;;5011408;28;20197;-61
2021/06/30 03:32:46;;;;;;;0.30;0.30;;;;;;;;;;5011920;28;20180;-61
2021/06/30 03:35:12;;;;;;;0.30;0.30;;;;;;;;;;5011943;28;20169;-61
2021/06/30 03:37:38;;;;;;;0.30;0.30;;;;;;;;;;5011946;28;20460;-61
2021/06/30 03:40:05;;;;;;;0.30;0.30;;;;;;;;;;5011578;28;20589;-61
2021/06/30 03:42:31;;;;;;;0.30;0.30;;;;;;;;;;5011681;28;20461;-61
2021/06/30 03:44:57;;;;;;;0.30;0.30;;;;;;;;;;5011844;28;20648;-61
2021/06/30 03:47:23;;;;;;;0.30;0.30;;;;;;;;;;5011822;28;20592;-61
2021/06/30 03:49:49;;;;;;;0.37;0.37;;;;;;;;;;5011474;28;20198;-61
2021/06/30 03:52:15;;;;;;;0.30;0.30;;;;;;;;;;5011800;28;20407;-61
2021/06/30 03:54:41;;;;;;;0.30;0.30;;;;;;;;;;5011597;28;20435;-61
2021/06/30 03:57:07;;;;;;;0.30;0.30;;;;;;;;;;5011609;28;20173;-61
2021/06/30 03:59:33;;;;;;;0.30;0.30;;;;;;;;;;5011409;28;20557;-61
2021/06/30 04:01:59;;;;;;;0.30;0.30;;;;;;;;;;5011683;28;20256;-61
2021/06/30 04:04:25;;;;;;;0.30;0.30;;;;;;;;;;5011608;28;20242;-61
2021/06/30 04:06:51;;;;;;;0.30;0.30;;;;;;;;;;5011672;28;20653;-61
2021/06/30 04:09:17;;;;;;;0.30;0.30;;;;;;;;;;5011351;28;20259;-61
2021/06/30 04:11:43;;;;;;;0.30;0.30;;;;;;;;;;5012415;28;20450;-61
2021/06/30 04:14:09;;;;;;;0.30;0.30;;;;;;;;;;5011427;28;20213;-61
2021/06/30 04:16:36;;;;;;;0.30;0.30;;;;;;;;;;5011513;28;20177;-61
2021/06/30 04:19:02;;;;;;;0.30;0.30;;;;;;;;;;5011189;28;20216;-61
2021/06/30 04:21:28;;;;;;;0.30;0.30;;;;;;;;;;5011498;28;20209;-61
2021/06/30 04:23:54;;;;;;;0.30;0.30;;;;;;;;;;5010453;28;20248;-61
2021/06/30 04:26:21;;;;;;;0.30;0.30;;;;;;;;;;5011190;28;20464;-61
2021/06/30 04:28:47;;;;;;;0.30;0.30;;;;;;;;;;5010941;28;20409;-61
2021/06/30 04:31:13;;;;;;;0.30;0.30;;;;;;;;;;5011305;28;20873;-61
2021/06/30 04:33:39;;;;;;;0.30;0.30;;;;;;;;;;5007473;28;20173;-61
2021/06/30 04:36:05;;;;;;;0.30;0.30;;;;;;;;;;5010558;28;20292;-61
2021/06/30 04:38:31;;;;;;;0.30;0.30;;;;;;;;;;4992496;28;20431;-61
2021/06/30 04:40:58;;;;;;;0.35;0.35;;;;;;;;;;5004225;28;20913;-61
2021/06/30 04:43:24;;;;;;;0.30;0.30;;;;;;;;;;5012842;28;20263;-61
2021/06/30 04:45:50;;;;;;;0.30;0.30;;;;;;;;;;5010523;28;20186;-61
2021/06/30 04:48:16;;;;;;;0.30;0.30;;;;;;;;;;4995096;28;20378;-61
2021/06/30 04:50:43;;;;;;;0.30;0.30;;;;;;;;;;4995230;28;20441;-61
2021/06/30 04:53:09;;;;;;;0.30;0.30;;;;;;;;;;4994992;28;20187;-61
2021/06/30 04:55:35;;;;;;;0.30;0.30;;;;;;;;;;5005976;28;20933;-61
2021/06/30 04:58:01;;;;;;;0.37;0.37;;;;;;;;;;5013839;28;20429;-61
2021/06/30 05:00:27;;;;;;;0.30;0.30;;;;;;;;;;4998872;28;20450;-61
2021/06/30 05:02:53;;;;;;;0.30;0.30;;;;;;;;;;5005354;28;20483;-61
2021/06/30 05:05:19;;;;;;;0.40;0.40;;;;;;;;;;5002666;28;20650;-61
2021/06/30 05:07:45;;;;;;;0.30;0.30;;;;;;;;;;4996090;28;20674;-62
2021/06/30 05:10:11;;;;;;;0.30;0.30;;;;;;;;;;5007931;28;20607;-62
2021/06/30 05:12:37;;;;;;;0.30;0.30;;;;;;;;;;5010324;28;20421;-62
2021/06/30 05:15:03;;;;;;;0.30;0.30;;;;;;;;;;5002052;28;20182;-62
2021/06/30 05:17:29;;;;;;;0.40;0.40;;;;;;;;;;4996406;28;20183;-62
2021/06/30 05:19:55;;;;;;;0.30;0.30;;;;;;;;;;5013555;28;20236;-62
2021/06/30 05:22:21;;;;;;;0.30;0.30;;;;;;;;;;5013042;28;20174;-62
2021/06/30 05:24:47;;;;;;;0.30;0.30;;;;;;;;;;5003091;28;20589;-62
2021/06/30 05:27:13;;;;;;;0.40;0.40;;;;;;;;;;5013822;28;20472;-62
2021/06/30 05:29:39;;;;;;;0.30;0.30;;;;;;;;;;5013711;28;20450;-62
2021/06/30 05:32:05;;;;;;;0.30;0.30;;;;;;;;;;5011728;28;20428;-62
2021/06/30 05:34:31;;;;;;;0.30;0.30;;;;;;;;;;5008226;28;20429;-62
2021/06/30 05:36:57;;;;;;;0.40;0.40;;;;;;;;;;5013654;28;20515;-62
2021/06/30 05:39:23;;;;;;;0.30;0.30;;;;;;;;;;5013227;28;20450;-62
2021/06/30 05:41:50;;;;;;;0.30;0.30;;;;;;;;;;5013867;28;20414;-62
2021/06/30 05:44:16;;;;;;;0.30;0.30;;;;;;;;;;5013492;28;20461;-61
2021/06/30 05:46:42;;;;;;;0.30;0.30;;;;;;;;;;5013624;28;20410;-62
2021/06/30 05:49:11;;;;;;;0.40;0.40;;;;;;;;;;5013288;28;20412;-62
2021/06/30 05:51:37;;;;;;;0.30;0.30;;;;;;;;;;5011718;28;20420;-62
2021/06/30 05:54:03;;;;;;;0.30;0.30;;;;;;;;;;5013340;28;20418;-62
2021/06/30 05:56:29;;;;;;;0.30;0.30;;;;;;;;;;5004754;28;20429;-62
2021/06/30 05:58:55;;;;;;;0.30;0.30;;;;;;;;;;4993632;28;20237;-62
2021/06/30 06:01:21;;;;;;;0.30;0.30;;;;;;;;;;4994705;28;20512;-62
2021/06/30 06:03:47;;;;;;;0.40;0.40;;;;;;;;;;5005901;28;20477;-62
2021/06/30 06:06:13;;;;;;;0.30;0.30;;;;;;;;;;5005466;28;20822;-62
2021/06/30 06:08:40;;;;;;;0.30;0.30;;;;;;;;;;4998802;28;20422;-63
2021/06/30 06:11:10;;;;;;;0.30;0.30;;;;;;;;;;5012672;28;20193;-63
2021/06/30 06:13:37;;;;;;;0.30;0.30;;;;;;;;;;5007686;28;20400;-62
2021/06/30 06:16:03;;;;;;;0.30;0.30;;;;;;;;;;4993358;28;20480;-63
2021/06/30 06:18:29;;;;;;;0.30;0.30;;;;;;;;;;4994214;28;20508;-62
2021/06/30 06:20:55;;;;;;;0.30;0.30;;;;;;;;;;4993268;28;20545;-63
2021/06/30 06:23:21;;;;;;;0.30;0.30;;;;;;;;;;4996201;28;20967;-62
2021/06/30 06:25:47;;;;;;;0.30;0.30;;;;;;;;;;5012512;28;20447;-63
2021/06/30 06:28:13;;;;;;;0.30;0.30;;;;;;;;;;5011139;28;20410;-62
2021/06/30 06:30:39;;;;;;;0.40;0.40;;;;;;;;;;5001543;28;20623;-62
2021/06/30 06:33:05;;;;;;;0.30;0.30;;;;;;;;;;5012079;28;20444;-62
2021/06/30 06:35:31;;;;;;;0.30;0.30;;;;;;;;;;5006071;28;20464;-62
2021/06/30 06:37:57;;;;;;;0.30;0.30;;;;;;;;;;5000302;28;20391;-62
2021/06/30 06:40:23;;;;;;;0.30;0.30;;;;;;;;;;5005334;28;20457;-62
2021/06/30 06:42:50;;;;;;;0.30;0.30;;;;;;;;;;4997862;28;20513;-62
2021/06/30 06:45:16;;;;;;;0.30;0.30;;;;;;;;;;5010829;28;20998;-62
2021/06/30 06:47:42;;;;;;;0.30;0.30;;;;;;;;;;5012182;28;20412;-63
2021/06/30 06:50:08;;;;;;;0.30;0.30;;;;;;;;;;5008279;28;20476;-62
2021/06/30 06:52:34;;;;;;;0.30;0.30;;;;;;;;;;4992483;28;20418;-62
2021/06/30 06:55:00;;;;;;;0.30;0.30;;;;;;;;;;5006788;28;20471;-63
2021/06/30 06:57:26;;;;;;;0.30;0.30;;;;;;;;;;5001691;28;20785;-62
2021/06/30 06:59:52;;;;;;;0.20;0.20;;;;;;;;;;5008251;28;20518;-63
2021/06/30 07:02:18;;;;;;;0.30;0.30;;;;;;;;;;5011746;28;20507;-62
2021/06/30 07:04:44;;;;;;;0.27;0.27;;;;;;;;;;5011414;28;20405;-62
2021/06/30 07:07:13;;;;;;;0.30;0.30;;;;;;;;;;5011527;28;20379;-62
2021/06/30 07:09:39;;;;;;;0.30;0.30;;;;;;;;;;5011665;28;20788;-62
2021/06/30 07:12:05;;;;;;;0.30;0.30;;;;;;;;;;5011875;28;20418;-62
2021/06/30 07:14:31;;;;;;;0.30;0.30;;;;;;;;;;5011910;28;20409;-62
2021/06/30 07:16:57;;;;;;;0.30;0.30;;;;;;;;;;5011825;28;20849;-62
2021/06/30 07:19:23;;;;;;;0.30;0.30;;;;;;;;;;5011460;28;20435;-62
2021/06/30 07:21:49;;;;;;;0.27;0.27;;;;;;;;;;5011719;28;20415;-60
2021/06/30 07:24:15;;;;;;;0.20;0.20;;;;;;;;;;5011586;28;20818;-63
2021/06/30 07:26:41;;;;;;;0.20;0.20;;;;;;;;;;5011605;28;20415;-61
2021/06/30 07:29:09;;;;;;;0.20;0.20;;;;;;;;;;5010585;28;20464;-61
2021/06/30 07:31:35;;;;;;;0.30;0.30;;;;;;;;;;5011327;28;20404;-60
2021/06/30 07:34:01;;;;;;;0.20;0.20;;;;;;;;;;5011440;28;20889;-62
2021/06/30 07:36:27;;;;;;;0.20;0.20;;;;;;;;;;5011631;28;20421;-63
2021/06/30 07:38:53;;;;;;;0.20;0.20;;;;;;;;;;5011193;28;20486;-63
2021/06/30 07:41:19;;;;;;;0.20;0.20;;;;;;;;;;5011238;28;20441;-63
2021/06/30 07:43:45;;;;;;;0.20;0.20;;;;;;;;;;5011421;28;20467;-63
2021/06/30 07:46:11;;;;;;;0.20;0.20;;;;;;;;;;5011464;28;20453;-62
2021/06/30 07:48:37;;;;;;;0.20;0.20;;;;;;;;;;5010988;28;20858;-62
2021/06/30 07:51:03;;;;;;;0.30;0.30;;;;;;;;;;5011411;28;20427;-60
2021/06/30 07:53:30;;;;;;;0.20;0.20;;;;;;;;;;5011282;28;20394;-62
2021/06/30 07:55:56;;;;;;;0.20;0.20;;;;;;;;;;5009874;28;20966;-62
2021/06/30 07:58:22;;;;;;;0.20;0.20;;;;;;;;;;5011061;28;20412;-63
2021/06/30 08:00:48;;;;;;;0.20;0.20;;;;;;;;;;5010905;28;20890;-62
2021/06/30 08:03:15;;;;;;;0.20;0.20;;;;;;;;;;5010883;28;20444;-63
2021/06/30 08:05:41;;;;;;;0.20;0.20;;;;;;;;;;5010973;28;20420;-62
2021/06/30 08:08:07;;;;;;;0.20;0.20;;;;;;;;;;5010886;28;20451;-62
2021/06/30 08:10:33;;;;;;;0.20;0.20;;;;;;;;;;5010637;28;20432;-62
2021/06/30 08:12:59;;;;;;;0.30;0.30;;;;;;;;;;5010709;28;20856;-62
2021/06/30 08:15:25;;;;;;;0.20;0.20;;;;;;;;;;5010887;28;20391;-62
2021/06/30 08:17:51;;;;;;;0.20;0.20;;;;;;;;;;5014610;28;20417;-63
2021/06/30 08:20:17;;;;;;;0.30;0.30;;;;;;;;;;5014351;28;20435;-62
2021/06/30 08:22:43;;;;;;;0.30;0.30;;;;;;;;;;5014493;28;20463;-62
2021/06/30 08:25:10;;;;;;;0.30;0.30;;;;;;;;;;5014579;28;20886;-63
2021/06/30 08:27:37;;;;;;;0.30;0.30;;;;;;;;;;5014484;28;20383;-63
2021/06/30 08:30:07;;;;;;;0.20;0.20;;;;;;;;;;5013154;28;20442;-62
2021/06/30 08:32:33;;;;;;;0.30;0.30;;;;;;;;;;5014387;28;20411;-62
2021/06/30 08:34:59;;;;;;;0.30;0.30;;;;;;;;;;5014281;28;20974;-62
2021/06/30 08:37:26;;;;;;;0.20;0.20;;;;;;;;;;5014086;28;20427;-63
2021/06/30 08:39:54;;;;;;;0.20;0.20;;;;;;;;;;5013856;28;20418;-63
2021/06/30 08:42:20;;;;;;;0.30;0.30;;;;;;;;;;5014254;28;20440;-63
2021/06/30 08:44:46;;;;;;;0.20;0.20;;;;;;;;;;5013948;28;20455;-63
2021/06/30 08:47:14;;;;;;;0.20;0.20;;;;;;;;;;5014120;28;20763;-63
2021/06/30 08:49:41;;;;;;;0.20;0.20;;;;;;;;;;5013880;28;20919;-63
2021/06/30 08:52:07;;;;;;;0.20;0.20;;;;;;;;;;5014044;28;20755;-63
2021/06/30 08:54:33;;;;;;;0.20;0.20;;;;;;;;;;5013660;28;20391;-63
2021/06/30 08:57:00;;;;;;;0.20;0.20;;;;;;;;;;5014013;28;20387;-63
2021/06/30 08:59:26;;;;;;;0.20;0.20;;;;;;;;;;5013571;28;20442;-62
2021/06/30 09:01:52;;;;;;;0.30;0.30;;;;;;;;;;5014180;28;20417;-63
2021/06/30 09:04:18;;;;;;;0.20;0.20;;;;;;;;;;5013728;28;20459;-62
2021/06/30 09:06:44;;;;;;;0.20;0.20;;;;;;;;;;5013815;28;20950;-63
2021/06/30 09:09:15;;;;;;;0.20;0.20;;;;;;;;;;5013734;28;20404;-62
2021/06/30 09:11:42;;;;;;;0.20;0.20;;;;;;;;;;5013789;28;20400;-63
2021/06/30 09:14:09;;;;;;;0.23;0.23;;;;;;;;;;5013661;28;20420;-62
2021/06/30 09:19:56;;;;;;;0.20;0.20;;;;;;;;;;5005295;28;20775;-63
2021/06/30 09:22:24;;;;;;;0.20;0.20;;;;;;;;;;5008037;28;20421;-63
2021/06/30 09:24:51;;;;;;;0.20;0.20;;;;;;;;;;5013398;28;20874;-63
2021/06/30 09:27:18;;;;;;;0.20;0.20;;;;;;;;;;5013043;28;20394;-63
2021/06/30 09:29:44;;;;;;;0.20;0.20;;;;;;;;;;5013115;28;20460;-63
2021/06/30 09:32:12;;;;;;;0.20;0.20;;;;;;;;;;5013304;28;20543;-63
2021/06/30 09:34:38;;;;;;;0.20;0.20;;;;;;;;;;5013147;28;20882;-63
2021/06/30 09:37:05;;;;;;;0.20;0.20;;;;;;;;;;5013354;28;20450;-61
2021/06/30 09:39:36;;;;;;;0.20;0.20;;;;;;;;;;5012811;28;20427;-60
2021/06/30 09:42:03;;;;;;;0.20;0.20;;;;;;;;;;5013343;28;20499;-61
2021/06/30 09:44:31;;;;;;;0.20;0.20;;;;;;;;;;5013093;28;20521;-61
2021/06/30 09:46:57;;;;;;;0.20;0.20;;;;;;;;;;5013102;28;20413;-61
2021/06/30 09:49:26;;;;;;;0.20;0.20;;;;;;;;;;5011522;28;20471;-62
2021/06/30 09:52:09;;;;;;;0.20;0.20;;;;;;;;;;5012996;28;20484;-61
2021/06/30 09:54:35;;;;;;;0.20;0.20;;;;;;;;;;5012493;28;20400;-61
2021/06/30 09:57:06;;;;;;;0.20;0.20;;;;;;;;;;5012770;28;20420;-61
2021/06/30 09:59:36;;;;;;;0.20;0.20;;;;;;;;;;5011546;28;20415;-60
2021/06/30 10:02:03;;;;;;;0.20;0.20;;;;;;;;;;5012955;28;20462;-60
2021/06/30 10:04:31;;;;;;;0.20;0.20;;;;;;;;;;5011834;28;20434;-60
2021/06/30 10:07:11;;;;;;;0.20;0.20;;;;;;;;;;5012786;28;20395;-61
2021/06/30 10:10:01;;;;;;;0.20;0.20;;;;;;;;;;5013050;28;20450;-64
2021/06/30 10:12:28;;;;;;;0.20;0.20;;;;;;;;;;5007443;28;20435;-62
2021/06/30 10:14:55;;;;;;;0.20;0.20;;;;;;;;;;5012736;28;20950;-61
2021/06/30 10:17:22;;;;;;;0.20;0.20;;;;;;;;;;5012723;28;20441;-62
2021/06/30 10:19:48;;;;;;;0.20;0.20;;;;;;;;;;5012402;28;20430;-61
2021/06/30 10:22:15;;;;;;;0.20;0.20;;;;;;;;;;5012300;28;20406;-61
2021/06/30 10:24:42;;;;;;;0.20;0.20;;;;;;;;;;5012447;28;20448;-61
2021/06/30 10:27:09;;;;;;;0.20;0.20;;;;;;;;;;5012439;28;20784;-62
2021/06/30 10:29:40;;;;;;;0.20;0.20;;;;;;;;;;5012174;28;20429;-62
2021/06/30 10:32:07;;;;;;;0.20;0.20;;;;;;;;;;5012533;28;20893;-62
2021/06/30 10:34:36;;;;;;;0.20;0.20;;;;;;;;;;5012475;28;20803;-62
2021/06/30 10:37:02;;;;;;;0.20;0.20;;;;;;;;;;5012429;28;20451;-61
2021/06/30 10:39:40;;;;;;;0.20;0.20;;;;;;;;;;5011127;28;20473;-61
2021/06/30 10:42:14;;;;;;;0.20;0.20;;;;;;;;;;5012619;28;21329;-61
2021/06/30 10:44:52;;;;;;;0.20;0.20;;;;;;;;;;5012155;28;20595;-61
2021/06/30 10:47:28;;;;;;;0.20;0.20;;;;;;;;;;5012135;28;20386;-63
2021/06/30 10:50:14;;;;;;;0.20;0.20;;;;;;;;;;5011672;28;20425;-61
2021/06/30 10:52:40;;;;;;;0.20;0.20;;;;;;;;;;5010541;28;20409;-61
2021/06/30 10:55:06;;;;;;;0.20;0.20;;;;;;;;;;5011632;28;20929;-61
2021/06/30 10:57:32;;;;;;;0.20;0.20;;;;;;;;;;5012034;28;20413;-61
2021/06/30 11:00:02;;;;;;;0.20;0.20;;;;;;;;;;5011771;28;20428;-61
2021/06/30 11:02:32;;;;;;;0.20;0.20;;;;;;;;;;5011802;28;20457;-62
2021/06/30 11:05:18;;;;;;;0.20;0.20;;;;;;;;;;5011951;28;20462;-62
2021/06/30 11:07:45;;;;;;;0.20;0.20;;;;;;;;;;5004674;28;20470;-63
2021/06/30 11:10:18;;;;;;;0.20;0.20;;;;;;;;;;5011551;28;20834;-62
2021/06/30 11:12:50;;;;;;;0.20;0.20;;;;;;;;;;5011735;28;20419;-62
2021/06/30 11:15:39;;;;;;;0.20;0.20;;;;;;;;;;5012062;28;20409;-62
2021/06/30 11:18:06;;;;;;;0.20;0.20;;;;;;;;;;5011758;28;20402;-63
2021/06/30 11:20:47;;;;;;;0.20;0.20;;;;;;;;;;5011498;28;20523;-62
2021/06/30 11:23:23;;;;;;;0.20;0.20;;;;;;;;;;5011616;28;20466;-63
2021/06/30 11:25:50;;;;;;;0.20;0.20;;;;;;;;;;5011452;28;20439;-62
2021/06/30 11:28:38;;;;;;;0.20;0.20;;;;;;;;;;5011249;28;20383;-63
2021/06/30 11:31:23;;;;;;;0.20;0.20;;;;;;;;;;5011558;28;20403;-62
2021/06/30 11:34:07;;;;;;;0.30;0.30;;;;;;;;;;5011612;28;20421;-63
2021/06/30 11:36:37;;;;;;;0.20;0.20;;;;;;;;;;5011655;28;20800;-63
2021/06/30 11:39:11;;;;;;;0.20;0.20;;;;;;;;;;5011210;28;20424;-62
2021/06/30 11:41:51;;;;;;;0.20;0.20;;;;;;;;;;5011439;28;20416;-63
2021/06/30 11:44:21;;;;;;;0.20;0.20;;;;;;;;;;5011503;28;20848;-63
2021/06/30 11:46:48;;;;;;;0.20;0.20;;;;;;;;;;5011485;28;20424;-62
2021/06/30 11:49:18;;;;;;;0.20;0.20;;;;;;;;;;5011254;28;20383;-63
2021/06/30 11:51:44;;;;;;;0.20;0.20;;;;;;;;;;5015370;28;20405;-62
2021/06/30 11:54:13;;;;;;;0.30;0.30;;;;;;;;;;5015384;28;20914;-62
2021/06/30 11:56:40;;;;;;;0.20;0.20;;;;;;;;;;5015435;28;20547;-62
2021/06/30 11:59:10;;;;;;;0.30;0.30;;;;;;;;;;5015102;28;20387;-62
2021/06/30 12:01:40;;;;;;;0.30;0.30;;;;;;;;;;5015341;28;20462;-60
2021/06/30 12:04:21;;;;;;;0.30;0.30;;;;;;;;;;5015277;28;20535;-63
2021/06/30 12:06:47;;;;;;;0.30;0.30;;;;;;;;;;5014959;28;20419;-63
2021/06/30 12:09:17;;;;;;;0.20;0.20;;;;;;;;;;5014920;28;20936;-61
2021/06/30 12:12:06;;;;;;;0.30;0.30;;;;;;;;;;5015367;28;20401;-61
2021/06/30 12:14:38;;;;;;;0.30;0.30;;;;;;;;;;5009800;28;20657;-61
2021/06/30 12:17:05;;;;;;;0.30;0.30;;;;;;;;;;5014947;28;20407;-61
2021/06/30 12:19:34;;;;;;;0.20;0.20;;;;;;;;;;5014655;28;20946;-61
2021/06/30 12:22:01;;;;;;;0.20;0.20;;;;;;;;;;5014919;28;20436;-61
2021/06/30 12:24:27;;;;;;;0.30;0.30;;;;;;;;;;5014858;28;20447;-61
2021/06/30 12:27:04;;;;;;;0.30;0.30;;;;;;;;;;5014767;28;20393;-61
2021/06/30 12:29:31;;;;;;;0.20;0.20;;;;;;;;;;5014118;28;20987;-61
2021/06/30 12:31:58;;;;;;;0.30;0.30;;;;;;;;;;5014678;28;20433;-61
2021/06/30 12:34:24;;;;;;;0.20;0.20;;;;;;;;;;5014765;28;20408;-62
2021/06/30 12:36:50;;;;;;;0.20;0.20;;;;;;;;;;5014639;28;21153;-62
2021/06/30 12:39:30;;;;;;;0.20;0.20;;;;;;;;;;5014184;28;20443;-60
2021/06/30 12:42:00;;;;;;;0.30;0.30;;;;;;;;;;5014500;28;20732;-62
2021/06/30 12:44:27;;;;;;;0.30;0.30;;;;;;;;;;5014808;28;20466;-61
2021/06/30 12:47:12;;;;;;;0.27;0.27;;;;;;;;;;5014397;28;20438;-61
2021/06/30 12:49:39;;;;;;;0.30;0.30;;;;;;;;;;5014210;28;20452;-61
2021/06/30 12:52:06;;;;;;;0.20;0.20;;;;;;;;;;5014546;28;20899;-61
2021/06/30 12:54:32;;;;;;;0.20;0.20;;;;;;;;;;5014307;28;20507;-61
2021/06/30 12:57:05;;;;;;;0.20;0.20;;;;;;;;;;5013916;28;20408;-62
2021/06/30 12:59:32;;;;;;;0.20;0.20;;;;;;;;;;5013671;28;20407;-62
2021/06/30 13:01:58;;;;;;;0.20;0.20;;;;;;;;;;5013100;28;20491;-61
2021/06/30 13:04:31;;;;;;;0.30;0.30;;;;;;;;;;5014088;28;20555;-62
2021/06/30 13:06:58;;;;;;;0.20;0.20;;;;;;;;;;5014094;28;20471;-62
2021/06/30 13:09:34;;;;;;;0.30;0.30;;;;;;;;;;5014263;28;20842;-61
2021/06/30 13:12:01;;;;;;;0.20;0.20;;;;;;;;;;5014304;28;20379;-61
2021/06/30 13:14:31;;;;;;;0.30;0.30;;;;;;;;;;5014056;28;20387;-61
2021/06/30 13:17:01;;;;;;;0.20;0.20;;;;;;;;;;5013844;28;20975;-62
2021/06/30 13:19:28;;;;;;;0.20;0.20;;;;;;;;;;5013585;28;20407;-61
2021/06/30 13:21:55;;;;;;;0.20;0.20;;;;;;;;;;5013823;28;20499;-61
2021/06/30 13:24:38;;;;;;;0.20;0.20;;;;;;;;;;5014034;28;20468;-61
2021/06/30 13:34:18;;;;;;;0.20;0.20;;;;;;;;;;5013635;28;20409;-61
2021/06/30 13:35:29;;;;;;;0.20;0.20;;;;;;;;;;5013238;28;20402;-61
2021/06/30 13:37:59;;;;;;;0.20;0.20;;;;;;;;;;5013629;28;20427;-61
2021/06/30 13:40:26;;;;;;;0.20;0.20;;;;;;;;;;5013480;28;20452;-61
2021/06/30 13:42:54;;;;;;;0.20;0.20;;;;;;;;;;5013355;28;20435;-62
2021/06/30 13:45:21;;;;;;;0.20;0.20;;;;;;;;;;5013332;28;20470;-61
2021/06/30 13:47:48;;;;;;;0.20;0.20;;;;;;;;;;5013293;28;20404;-61
2021/06/30 13:50:14;;;;;;;0.20;0.20;;;;;;;;;;5013114;28;20420;-61
2021/06/30 13:52:40;;;;;;;0.30;0.30;;;;;;;;;;5013320;28;20410;-61
2021/06/30 13:55:06;;;;;;;0.30;0.30;;;;;;;;;;5013093;28;20380;-61
2021/06/30 13:57:32;;;;;;;0.20;0.20;;;;;;;;;;5013189;28;20409;-61
2021/06/30 13:59:58;;;;;;;0.30;0.30;;;;;;;;;;5012872;28;20504;-62
2021/06/30 14:02:24;;;;;;;0.30;0.30;;;;;;;;;;5012974;28;20408;-62
2021/06/30 14:04:50;;;;;;;0.30;0.30;;;;;;;;;;5012799;28;20538;-61
2021/06/30 14:07:16;;;;;;;0.20;0.20;;;;;;;;;;5012696;28;20442;-62
2021/06/30 14:09:43;;;;;;;0.20;0.20;;;;;;;;;;5012514;28;20486;-62
2021/06/30 14:12:09;;;;;;;0.30;0.30;;;;;;;;;;5012868;28;21071;-62
2021/06/30 14:14:35;;;;;;;0.20;0.20;;;;;;;;;;5011783;28;20413;-62
2021/06/30 14:17:02;;;;;;;0.30;0.30;;;;;;;;;;5012306;28;20427;-62
2021/06/30 14:19:28;;;;;;;0.20;0.20;;;;;;;;;;5012406;28;20471;-62
2021/06/30 14:21:54;;;;;;;0.30;0.30;;;;;;;;;;5012795;28;20386;-62
2021/06/30 14:24:20;;;;;;;0.30;0.30;;;;;;;;;;5012566;28;21006;-62
2021/06/30 14:26:46;;;;;;;0.20;0.20;;;;;;;;;;5012672;28;20380;-62
2021/06/30 14:29:12;;;;;;;0.20;0.20;;;;;;;;;;5012263;28;20472;-62
2021/06/30 14:31:38;;;;;;;0.30;0.30;;;;;;;;;;5012669;28;20419;-62
2021/06/30 14:34:07;;;;;;;0.20;0.20;;;;;;;;;;5012606;28;20791;-62
2021/06/30 14:36:33;;;;;;;0.30;0.30;;;;;;;;;;5012430;28;20388;-62
2021/06/30 14:38:59;;;;;;;0.20;0.20;;;;;;;;;;5011754;28;20810;-62
2021/06/30 14:41:26;;;;;;;0.20;0.20;;;;;;;;;;5012533;28;20436;-62
2021/06/30 14:43:53;;;;;;;0.20;0.20;;;;;;;;;;5012329;28;20458;-62
2021/06/30 14:46:19;;;;;;;0.20;0.20;;;;;;;;;;5012379;28;20507;-62
2021/06/30 14:48:45;;;;;;;0.30;0.30;;;;;;;;;;5011910;28;20474;-62
2021/06/30 14:51:11;;;;;;;0.20;0.20;;;;;;;;;;5012077;28;20416;-62
2021/06/30 14:53:37;;;;;;;0.20;0.20;;;;;;;;;;5012389;28;20439;-62